Time;durP1;ratioP1;P1;durP2;ratioP2;P2;SDS_P1;SDS_P2;PMS_P1;PMS_P2;Temp;Humidity;BMP_temperature;BMP_pressure;BME280_temperature;BME280_humidity;BME280_pressure;Samples;Min_cycle;Max_cycle;Signal;HPM_P1;HPM_P2
2023/11/29 06:01:24;;;;;;;9.63;5.47;;;1.50;74.60;;;;;;4446165;23;20126;-77
2023/11/29 06:03:26;;;;;;;9.80;5.90;;;1.60;74.20;;;;;;4132144;28;20188;-79
2023/11/29 06:05:28;;;;;;;9.32;5.60;;;1.60;73.90;;;;;;4132240;28;20134;-78
2023/11/29 06:07:29;;;;;;;9.63;5.45;;;1.60;73.90;;;;;;4131842;28;20611;-78
2023/11/29 06:09:31;;;;;;;8.05;5.03;;;1.60;73.40;;;;;;4132159;28;20058;-78
2023/11/29 06:11:33;;;;;;;8.63;5.13;;;1.60;72.80;;;;;;4132157;28;20081;-78
2023/11/29 06:13:35;;;;;;;8.98;4.68;;;1.70;72.90;;;;;;4132164;28;20487;-77
2023/11/29 06:15:36;;;;;;;8.82;5.30;;;1.60;72.30;;;;;;4132276;28;20046;-78
2023/11/29 06:17:40;;;;;;;7.93;4.90;;;1.70;72.30;;;;;;4132125;28;20046;-78
2023/11/29 06:19:44;;;;;;;9.10;5.15;;;1.70;72.20;;;;;;4132147;28;20050;-78
2023/11/29 06:21:46;;;;;;;8.23;4.63;;;1.70;72.10;;;;;;4132290;28;20057;-77
2023/11/29 06:23:48;;;;;;;7.97;4.68;;;1.70;71.80;;;;;;4132083;28;20491;-77
2023/11/29 06:25:49;;;;;;;7.13;4.35;;;1.70;71.70;;;;;;4131968;28;20483;-77
2023/11/29 06:27:51;;;;;;;7.25;4.15;;;1.70;71.40;;;;;;4132042;28;20089;-76
2023/11/29 06:29:53;;;;;;;7.88;4.70;;;1.70;71.40;;;;;;4132182;28;20483;-77
2023/11/29 06:31:55;;;;;;;7.05;4.30;;;1.70;71.30;;;;;;4131978;28;20042;-75
2023/11/29 06:33:58;;;;;;;6.50;3.95;;;1.70;71.00;;;;;;4132198;28;20054;-76
2023/11/29 06:36:03;;;;;;;7.35;4.13;;;1.70;71.10;;;;;;4132447;28;20046;-77
2023/11/29 06:38:05;;;;;;;6.55;4.20;;;1.70;70.90;;;;;;4132021;28;20074;-77
2023/11/29 06:40:10;;;;;;;6.28;4.00;;;1.80;70.90;;;;;;4132393;28;20054;-77
2023/11/29 06:42:13;;;;;;;6.60;3.87;;;1.80;70.70;;;;;;4132251;28;20476;-78
2023/11/29 06:44:15;;;;;;;6.15;3.92;;;1.80;70.60;;;;;;4132056;28;20049;-76
2023/11/29 06:46:17;;;;;;;6.25;3.67;;;1.80;70.30;;;;;;4132558;28;20051;-76
2023/11/29 06:48:18;;;;;;;5.93;3.97;;;1.80;70.50;;;;;;4132343;28;20095;-76
2023/11/29 06:50:22;;;;;;;5.75;3.47;;;1.80;70.10;;;;;;4132121;28;20046;-78
2023/11/29 06:52:22;;;;;;;6.40;3.95;;;1.80;70.10;;;;;;4131811;28;20058;-76
2023/11/29 06:54:24;;;;;;;5.95;3.53;;;1.90;69.90;;;;;;4132508;28;20138;-75
2023/11/29 06:56:25;;;;;;;6.18;3.50;;;1.90;69.60;;;;;;4131996;28;20495;-76
2023/11/29 06:58:27;;;;;;;6.07;3.60;;;1.90;69.50;;;;;;4132111;28;20061;-76
2023/11/29 07:00:29;;;;;;;6.53;3.70;;;1.90;69.20;;;;;;4132332;28;20480;-78
2023/11/29 07:02:31;;;;;;;6.53;3.80;;;1.90;69.30;;;;;;4132542;28;20050;-77
2023/11/29 07:04:33;;;;;;;5.70;3.72;;;1.90;69.30;;;;;;4134889;28;20046;-77
2023/11/29 07:06:39;;;;;;;6.15;3.53;;;1.90;69.50;;;;;;4135247;28;20050;-77
2023/11/29 07:08:41;;;;;;;;;;;1.90;69.60;;;;;;4135398;28;20080;-75
2023/11/29 07:10:42;;;;;;;6.55;3.25;;;1.90;69.80;;;;;;4135235;28;19970;-77
2023/11/29 07:12:44;;;;;;;5.78;3.33;;;1.90;69.90;;;;;;4134974;28;20117;-76
2023/11/29 07:14:46;;;;;;;5.25;3.35;;;2.00;70.00;;;;;;4134730;28;20046;-77
2023/11/29 07:16:48;;;;;;;6.00;3.53;;;2.00;69.90;;;;;;4134465;28;20097;-77
2023/11/29 07:18:49;;;;;;;6.53;3.67;;;2.00;69.90;;;;;;4134903;28;20050;-75
2023/11/29 07:20:51;;;;;;;5.78;3.60;;;2.00;69.90;;;;;;4134760;28;20400;-77
2023/11/29 07:22:54;;;;;;;6.03;3.55;;;2.00;69.80;;;;;;4134393;28;20054;-77
2023/11/29 07:24:56;;;;;;;5.50;3.30;;;2.00;69.80;;;;;;4134722;28;20042;-76
2023/11/29 07:26:58;;;;;;;6.65;3.97;;;2.00;69.80;;;;;;4134848;28;20042;-77
2023/11/29 07:29:00;;;;;;;6.47;4.10;;;2.10;69.70;;;;;;4134392;28;20460;-76
2023/11/29 07:31:02;;;;;;;6.78;4.00;;;2.00;70.40;;;;;;4134760;28;20097;-77
2023/11/29 07:33:03;;;;;;;5.57;3.42;;;2.10;69.80;;;;;;4134621;28;20412;-77
2023/11/29 07:35:06;;;;;;;6.45;3.78;;;2.10;69.70;;;;;;4134394;28;20047;-75
2023/11/29 07:37:08;;;;;;;6.18;3.42;;;2.00;69.50;;;;;;4134450;28;20065;-77
2023/11/29 07:39:10;;;;;;;5.70;3.60;;;2.00;69.50;;;;;;4134229;28;20069;-78
2023/11/29 07:41:12;;;;;;;5.60;3.72;;;2.00;69.30;;;;;;4134572;28;20051;-77
2023/11/29 07:43:13;;;;;;;5.53;3.67;;;2.10;69.50;;;;;;4134392;28;20137;-77
2023/11/29 07:45:15;;;;;;;6.15;3.70;;;2.10;69.20;;;;;;4134379;28;20047;-77
2023/11/29 07:47:17;;;;;;;5.55;3.65;;;2.10;69.30;;;;;;4134297;28;20046;-76
2023/11/29 07:49:19;;;;;;;6.38;3.78;;;2.10;69.40;;;;;;4134378;28;20457;-76
2023/11/29 07:51:21;;;;;;;6.63;3.70;;;2.10;69.40;;;;;;4134291;28;20451;-75
2023/11/29 07:53:23;;;;;;;6.13;3.92;;;2.10;69.70;;;;;;4134172;28;20050;-77
2023/11/29 07:55:27;;;;;;;6.15;3.58;;;2.10;69.90;;;;;;4134329;28;20054;-76
2023/11/29 07:57:28;;;;;;;5.97;3.97;;;2.20;69.90;;;;;;4134179;28;20541;-77
2023/11/29 07:59:30;;;;;;;6.10;3.58;;;2.10;69.60;;;;;;4134004;28;20096;-75
2023/11/29 08:01:32;;;;;;;6.32;3.80;;;2.20;69.90;;;;;;4134011;28;20081;-76
2023/11/29 08:03:34;;;;;;;6.78;4.28;;;2.10;70.20;;;;;;4134029;28;20104;-76
2023/11/29 08:05:38;;;;;;;6.18;3.75;;;2.20;70.30;;;;;;4134594;28;20047;-78
2023/11/29 08:07:40;;;;;;;6.57;3.50;;;2.20;70.10;;;;;;4133821;28;20051;-76
2023/11/29 08:09:44;;;;;;;6.95;4.03;;;2.20;69.80;;;;;;4133946;28;20463;-76
2023/11/29 08:11:47;;;;;;;8.45;4.10;;;2.20;69.90;;;;;;4134075;28;20199;-76
2023/11/29 08:13:49;;;;;;;6.88;4.18;;;2.20;70.00;;;;;;4133164;28;20112;-78
2023/11/29 08:15:52;;;;;;;7.70;3.97;;;2.30;70.00;;;;;;4133813;28;20062;-77
2023/11/29 08:17:54;;;;;;;6.97;4.03;;;2.30;69.70;;;;;;4133629;28;20048;-77
2023/11/29 08:19:55;;;;;;;6.38;3.80;;;2.30;69.70;;;;;;4133838;28;20050;-78
2023/11/29 08:21:57;;;;;;;6.80;3.95;;;2.20;70.00;;;;;;4133695;28;20554;-77
2023/11/29 08:23:59;;;;;;;7.00;3.72;;;2.20;70.20;;;;;;4133416;28;20098;-78
2023/11/29 08:26:01;;;;;;;6.65;3.63;;;2.30;69.90;;;;;;4133730;28;20542;-79
2023/11/29 08:28:04;;;;;;;6.55;3.60;;;2.20;69.80;;;;;;4133386;28;20051;-78
2023/11/29 08:30:08;;;;;;;7.18;4.25;;;2.20;69.60;;;;;;4133667;28;20058;-78
2023/11/29 08:32:10;;;;;;;6.10;3.95;;;2.20;70.00;;;;;;4133705;28;20046;-77
2023/11/29 08:34:12;;;;;;;7.20;4.00;;;2.20;70.20;;;;;;4133500;28;20106;-75
2023/11/29 08:36:15;;;;;;;6.43;3.63;;;2.30;70.20;;;;;;4133675;28;20089;-78
2023/11/29 08:38:17;;;;;;;6.15;3.65;;;2.30;70.20;;;;;;4133586;28;20125;-77
2023/11/29 08:40:20;;;;;;;6.97;3.90;;;2.20;69.90;;;;;;4133262;28;20408;-77
2023/11/29 08:42:20;;;;;;;6.28;3.80;;;2.20;69.90;;;;;;4133546;28;20080;-77
2023/11/29 08:44:24;;;;;;;6.25;3.85;;;2.20;70.20;;;;;;4133223;28;20050;-78
2023/11/29 08:46:26;;;;;;;6.13;3.75;;;2.20;69.90;;;;;;4133266;28;20457;-79
2023/11/29 08:48:27;;;;;;;7.25;3.80;;;2.20;69.90;;;;;;4133154;28;20054;-77
2023/11/29 08:50:29;;;;;;;5.38;3.25;;;2.20;70.10;;;;;;4133425;28;20447;-77
2023/11/29 08:52:31;;;;;;;6.28;3.50;;;2.20;70.00;;;;;;4133006;28;20403;-77
2023/11/29 08:54:33;;;;;;;5.68;3.65;;;2.20;69.70;;;;;;4133002;28;20051;-77
2023/11/29 08:56:35;;;;;;;7.10;3.60;;;2.30;69.80;;;;;;4133067;28;20054;-77
2023/11/29 08:58:37;;;;;;;5.50;3.38;;;2.30;69.50;;;;;;4133117;28;20472;-78
2023/11/29 09:00:41;;;;;;;5.57;3.80;;;2.30;69.20;;;;;;4132746;28;20105;-77
2023/11/29 09:02:43;;;;;;;6.03;3.38;;;2.20;69.50;;;;;;4132823;28;20050;-74
2023/11/29 09:04:45;;;;;;;6.63;3.60;;;2.30;69.10;;;;;;4132694;28;20101;-78
2023/11/29 09:06:47;;;;;;;6.28;3.50;;;2.20;69.00;;;;;;4129905;28;20047;-76
2023/11/29 09:08:49;;;;;;;5.85;3.47;;;2.20;68.60;;;;;;4130911;28;20089;-75
2023/11/29 09:10:51;;;;;;;5.97;3.38;;;2.20;69.10;;;;;;4130726;28;20073;-76
2023/11/29 09:12:54;;;;;;;5.53;3.28;;;2.30;69.00;;;;;;4130817;28;20050;-77
2023/11/29 09:14:56;;;;;;;5.85;3.20;;;2.30;69.20;;;;;;4130730;28;20050;-76
2023/11/29 09:16:59;;;;;;;5.20;3.25;;;2.30;68.80;;;;;;4130542;28;20089;-76
2023/11/29 09:19:01;;;;;;;5.38;3.10;;;2.30;68.20;;;;;;4130601;28;20046;-77
2023/11/29 09:21:03;;;;;;;5.00;2.92;;;2.40;68.40;;;;;;4130440;28;20057;-76
2023/11/29 09:23:04;;;;;;;5.82;2.97;;;2.40;68.30;;;;;;4130510;28;20266;-75
2023/11/29 09:25:07;;;;;;;5.25;3.00;;;2.40;68.00;;;;;;4129429;28;20046;-78
2023/11/29 09:27:11;;;;;;;5.47;3.20;;;2.30;68.20;;;;;;4130486;28;20053;-75
2023/11/29 09:29:12;;;;;;;5.15;3.15;;;2.40;68.00;;;;;;4130026;28;20104;-75
2023/11/29 09:31:14;;;;;;;5.70;3.35;;;2.40;68.10;;;;;;4130582;28;20085;-76
2023/11/29 09:33:18;;;;;;;5.53;3.13;;;2.40;67.80;;;;;;4130533;28;20054;-73
2023/11/29 09:35:20;;;;;;;4.95;2.90;;;2.50;67.60;;;;;;4130476;28;20062;-76
2023/11/29 09:37:20;;;;;;;5.97;3.20;;;2.50;67.10;;;;;;4130436;28;20054;-76
2023/11/29 09:39:23;;;;;;;4.78;2.80;;;2.50;67.30;;;;;;4130493;28;20053;-76
2023/11/29 09:41:24;;;;;;;5.50;2.70;;;2.60;66.90;;;;;;4130092;28;20054;-74
2023/11/29 09:43:27;;;;;;;5.63;3.10;;;2.60;66.80;;;;;;4130338;28;20534;-74
2023/11/29 09:45:29;;;;;;;5.38;2.90;;;2.60;66.60;;;;;;4130470;28;20446;-76
2023/11/29 09:47:31;;;;;;;4.68;3.08;;;2.60;66.70;;;;;;4130505;28;20053;-75
2023/11/29 09:49:34;;;;;;;5.15;3.03;;;2.70;66.80;;;;;;4130696;28;20441;-74
2023/11/29 09:51:36;;;;;;;5.72;3.25;;;2.70;66.80;;;;;;4130501;28;20054;-73
2023/11/29 09:53:38;;;;;;;5.13;3.10;;;2.70;67.00;;;;;;4130037;28;20081;-76
2023/11/29 09:55:39;;;;;;;4.78;2.75;;;2.80;66.70;;;;;;4130357;28;20388;-76
2023/11/29 09:57:41;;;;;;;5.15;3.28;;;2.80;66.60;;;;;;4130059;28;20100;-75
2023/11/29 09:59:42;;;;;;;4.88;2.80;;;2.80;66.50;;;;;;4130456;28;20101;-74
2023/11/29 10:01:46;;;;;;;5.28;2.63;;;2.90;66.20;;;;;;4130220;28;20499;-76
2023/11/29 10:04:03;;;;;;;4.88;3.05;;;3.00;66.10;;;;;;4130607;28;20073;-74
2023/11/29 10:06:07;;;;;;;4.45;2.78;;;3.10;66.20;;;;;;4130330;28;20825;-75
2023/11/29 10:08:08;;;;;;;8.02;3.58;;;3.10;65.10;;;;;;4130297;28;20054;-76
2023/11/29 10:10:11;;;;;;;4.70;2.53;;;3.10;65.60;;;;;;4130403;28;20140;-75
2023/11/29 10:12:13;;;;;;;5.78;2.90;;;3.10;65.50;;;;;;4130465;28;20106;-76
2023/11/29 10:14:15;;;;;;;4.65;2.53;;;3.10;64.70;;;;;;4130168;28;20058;-75
2023/11/29 10:16:17;;;;;;;5.07;2.65;;;3.10;64.80;;;;;;4130276;28;20054;-75
2023/11/29 10:18:19;;;;;;;6.10;2.65;;;3.20;64.60;;;;;;4130189;28;20472;-76
2023/11/29 10:20:26;;;;;;;4.32;2.50;;;3.20;64.20;;;;;;4130346;28;20058;-75
2023/11/29 10:22:30;;;;;;;4.18;2.50;;;3.20;63.40;;;;;;4130351;28;20453;-74
2023/11/29 10:24:32;;;;;;;4.95;2.55;;;3.20;63.70;;;;;;4128564;28;20058;-77
2023/11/29 10:26:34;;;;;;;4.00;2.20;;;3.20;64.10;;;;;;4130042;28;20061;-75
2023/11/29 10:28:35;;;;;;;4.57;2.58;;;3.30;63.90;;;;;;4130178;28;20058;-75
2023/11/29 10:30:37;;;;;;;4.30;2.42;;;3.30;62.60;;;;;;4129706;28;20105;-74
2023/11/29 10:32:38;;;;;;;4.85;2.58;;;3.30;62.70;;;;;;4130241;28;20046;-74
2023/11/29 10:34:40;;;;;;;6.00;3.35;;;3.30;62.80;;;;;;4129980;28;20506;-75
2023/11/29 10:36:42;;;;;;;4.40;2.30;;;3.30;62.80;;;;;;4130084;28;20439;-75
2023/11/29 10:38:55;;;;;;;5.10;2.30;;;3.30;62.60;;;;;;4132857;28;20058;-76
2023/11/29 10:41:00;;;;;;;4.10;2.38;;;3.40;61.90;;;;;;4132816;28;20164;-75
2023/11/29 10:43:05;;;;;;;3.70;2.13;;;3.50;62.10;;;;;;4135465;28;20491;-74
2023/11/29 10:45:10;;;;;;;5.35;2.53;;;3.50;62.20;;;;;;4134521;28;20085;-75
2023/11/29 10:47:20;;;;;;;4.53;2.30;;;3.60;61.80;;;;;;4133343;28;20132;-75
2023/11/29 10:49:34;;;;;;;4.60;2.55;;;3.60;62.10;;;;;;4132901;28;20051;-77
2023/11/29 10:51:37;;;;;;;4.47;2.45;;;3.60;61.60;;;;;;4133292;28;20050;-74
2023/11/29 10:53:40;;;;;;;4.88;2.28;;;3.70;62.20;;;;;;4132765;28;20088;-76
2023/11/29 10:55:45;;;;;;;4.28;2.60;;;3.70;62.10;;;;;;4133212;28;20046;-77
2023/11/29 10:57:57;;;;;;;4.73;2.63;;;3.70;61.30;;;;;;4133108;28;20093;-75
2023/11/29 11:00:13;;;;;;;4.28;2.38;;;3.70;61.10;;;;;;4133278;28;20061;-76
2023/11/29 11:02:16;;;;;;;4.13;2.40;;;3.70;61.20;;;;;;4132992;28;20506;-76
2023/11/29 11:04:18;;;;;;;9.80;5.00;;;3.60;61.10;;;;;;4132735;28;20054;-77
2023/11/29 11:06:37;;;;;;;5.55;2.80;;;3.60;62.00;;;;;;4132588;28;20116;-76
2023/11/29 11:08:39;;;;;;;5.03;2.83;;;3.60;61.90;;;;;;4132986;28;20050;-76
2023/11/29 11:10:45;;;;;;;5.90;2.83;;;3.70;61.90;;;;;;4133527;28;20193;-76
2023/11/29 11:12:46;;;;;;;4.47;2.60;;;3.70;61.90;;;;;;4132839;28;20464;-76
2023/11/29 11:14:55;;;;;;;5.28;2.80;;;3.70;61.90;;;;;;4132577;28;20054;-76
2023/11/29 11:16:58;;;;;;;4.93;3.00;;;3.70;62.20;;;;;;4132541;28;20058;-74
2023/11/29 11:19:02;;;;;;;4.25;2.70;;;3.70;62.20;;;;;;4132717;28;20062;-78
2023/11/29 11:21:06;;;;;;;5.28;2.70;;;3.80;61.80;;;;;;4132837;28;20050;-76
2023/11/29 11:23:08;;;;;;;4.78;2.80;;;3.70;61.60;;;;;;4131198;28;20050;-74
2023/11/29 11:25:12;;;;;;;5.15;2.67;;;3.70;62.30;;;;;;4132939;28;20054;-75
2023/11/29 11:27:15;;;;;;;5.03;2.90;;;3.80;62.20;;;;;;4132702;28;20051;-76
2023/11/29 11:29:18;;;;;;;4.97;2.75;;;3.80;62.40;;;;;;4132402;28;20058;-76
2023/11/29 11:31:23;;;;;;;4.05;2.65;;;3.70;62.30;;;;;;4132505;28;20512;-77
2023/11/29 11:33:25;;;;;;;5.72;2.85;;;3.80;62.70;;;;;;4132489;28;20112;-76
2023/11/29 11:35:34;;;;;;;4.50;2.55;;;3.70;62.40;;;;;;4132413;28;20503;-75
2023/11/29 11:37:37;;;;;;;4.50;2.70;;;3.80;62.70;;;;;;4132899;28;20046;-74
2023/11/29 11:39:39;;;;;;;5.28;2.80;;;3.90;62.60;;;;;;4132266;28;20054;-75
2023/11/29 11:41:41;;;;;;;4.70;2.70;;;3.90;63.20;;;;;;4132068;28;20054;-77
2023/11/29 11:43:44;;;;;;;5.32;2.88;;;3.90;62.60;;;;;;4132097;28;20101;-74
2023/11/29 11:45:46;;;;;;;5.20;2.80;;;4.00;62.60;;;;;;4132202;28;20046;-76
2023/11/29 11:47:48;;;;;;;4.85;3.05;;;4.10;62.70;;;;;;4132043;28;20046;-76
2023/11/29 11:49:49;;;;;;;6.35;3.10;;;4.20;62.50;;;;;;4131948;28;20062;-77
2023/11/29 11:51:51;;;;;;;4.45;2.65;;;4.30;61.90;;;;;;4132005;28;20141;-76
2023/11/29 11:53:53;;;;;;;5.43;3.00;;;4.40;61.50;;;;;;4131796;28;20057;-77
2023/11/29 11:55:55;;;;;;;7.50;3.53;;;4.40;61.10;;;;;;4131936;28;20133;-75
2023/11/29 11:57:59;;;;;;;10.60;5.10;;;4.60;61.70;;;;;;4131855;28;20046;-74
2023/11/29 12:00:04;;;;;;;7.28;2.97;;;4.70;61.00;;;;;;4132059;28;20073;-73
2023/11/29 12:02:07;;;;;;;5.10;2.57;;;4.80;60.00;;;;;;4131796;28;20467;-77
2023/11/29 12:04:09;;;;;;;4.32;2.50;;;4.90;59.50;;;;;;4131911;28;20317;-78
2023/11/29 12:06:13;;;;;;;5.85;2.47;;;5.00;58.90;;;;;;4131988;28;20229;-76
2023/11/29 12:08:16;;;;;;;4.68;2.47;;;5.00;58.60;;;;;;4131664;28;20375;-77
2023/11/29 12:10:18;;;;;;;6.13;2.88;;;5.10;58.20;;;;;;4131653;28;20550;-74
2023/11/29 12:12:20;;;;;;;4.45;2.63;;;5.10;58.20;;;;;;4131710;28;20471;-75
2023/11/29 12:14:21;;;;;;;4.32;2.58;;;5.10;58.30;;;;;;4131625;28;20532;-75
2023/11/29 12:16:26;;;;;;;4.30;2.33;;;5.20;57.50;;;;;;4131508;28;20057;-74
2023/11/29 12:18:29;;;;;;;6.05;2.60;;;5.10;57.20;;;;;;4131458;28;20057;-75
2023/11/29 12:20:32;;;;;;;4.72;2.50;;;5.20;57.40;;;;;;4131575;28;20054;-76
2023/11/29 12:22:35;;;;;;;4.43;2.40;;;5.20;57.60;;;;;;4131554;28;20061;-73
2023/11/29 12:24:39;;;;;;;5.40;2.78;;;5.20;57.20;;;;;;4129097;28;20054;-75
2023/11/29 12:26:41;;;;;;;4.80;2.42;;;5.10;57.60;;;;;;4131796;28;20463;-78
2023/11/29 12:28:42;;;;;;;5.35;2.70;;;5.30;57.20;;;;;;4131605;28;20178;-76
2023/11/29 12:30:44;;;;;;;4.95;2.50;;;5.40;56.90;;;;;;4131352;28;20082;-76
2023/11/29 12:32:49;;;;;;;5.70;2.83;;;5.40;56.60;;;;;;4131575;28;20054;-75
2023/11/29 12:34:51;;;;;;;4.25;2.30;;;5.50;56.60;;;;;;4131523;28;20081;-76
2023/11/29 12:36:57;;;;;;;4.75;2.35;;;5.50;56.30;;;;;;4131613;28;20050;-77
2023/11/29 12:39:00;;;;;;;6.90;3.67;;;5.40;56.10;;;;;;4131200;28;20058;-77
2023/11/29 12:41:02;;;;;;;5.22;2.50;;;5.40;56.60;;;;;;4130988;28;20177;-76
2023/11/29 12:43:04;;;;;;;8.85;4.07;;;5.30;56.20;;;;;;4131165;28;20050;-78
2023/11/29 12:45:07;;;;;;;5.18;2.35;;;5.30;56.30;;;;;;4131114;28;20058;-75
2023/11/29 12:47:09;;;;;;;4.63;2.42;;;5.20;56.60;;;;;;4131426;28;20077;-77
2023/11/29 12:49:12;;;;;;;4.82;2.67;;;5.20;56.90;;;;;;4131226;28;20054;-76
2023/11/29 12:51:14;;;;;;;5.30;2.70;;;5.00;56.80;;;;;;4131116;28;20114;-74
2023/11/29 12:53:16;;;;;;;6.18;2.80;;;4.90;57.30;;;;;;4130909;28;20156;-74
2023/11/29 12:55:18;;;;;;;4.72;2.58;;;4.90;57.50;;;;;;4131040;28;20113;-77
2023/11/29 12:57:19;;;;;;;5.13;2.53;;;5.00;57.60;;;;;;4131107;28;20101;-73
2023/11/29 12:59:22;;;;;;;4.63;2.70;;;5.00;57.50;;;;;;4131247;28;20480;-78
2023/11/29 13:01:24;;;;;;;7.60;2.67;;;5.00;57.60;;;;;;4130330;28;20058;-76
2023/11/29 13:03:26;;;;;;;4.43;2.25;;;5.00;57.50;;;;;;4130896;28;20054;-79
2023/11/29 13:05:29;;;;;;;6.53;3.20;;;5.00;57.70;;;;;;4130977;28;20095;-77
2023/11/29 13:07:31;;;;;;;5.90;2.80;;;5.00;57.60;;;;;;4130768;28;20116;-77
2023/11/29 13:09:33;;;;;;;6.18;2.80;;;4.80;57.80;;;;;;4130935;28;20404;-74
2023/11/29 13:11:36;;;;;;;5.30;2.90;;;4.80;58.00;;;;;;4130793;28;20062;-76
2023/11/29 13:13:38;;;;;;;5.18;2.63;;;4.80;58.20;;;;;;4131009;28;20536;-73
2023/11/29 13:15:39;;;;;;;6.07;3.10;;;4.80;58.30;;;;;;4130956;28;20050;-76
2023/11/29 13:17:41;;;;;;;5.85;2.80;;;4.70;58.50;;;;;;4130608;28;20050;-77
2023/11/29 13:19:43;;;;;;;4.68;2.42;;;4.70;58.70;;;;;;4131000;28;20050;-75
2023/11/29 13:21:45;;;;;;;6.28;3.00;;;4.70;58.70;;;;;;4131017;28;20106;-74
2023/11/29 13:23:48;;;;;;;4.70;2.58;;;4.80;59.00;;;;;;4128746;28;20058;-74
2023/11/29 13:25:49;;;;;;;5.28;2.67;;;4.80;58.80;;;;;;4130653;28;20108;-74
2023/11/29 13:27:51;;;;;;;6.47;3.00;;;4.80;58.90;;;;;;4130755;28;20125;-75
2023/11/29 13:29:52;;;;;;;5.35;2.70;;;4.80;58.90;;;;;;4130561;28;20058;-75
2023/11/29 13:31:54;;;;;;;6.75;2.67;;;4.80;58.90;;;;;;4130737;28;20098;-75
2023/11/29 13:33:55;;;;;;;6.53;3.20;;;4.80;59.00;;;;;;4130608;28;20058;-75
2023/11/29 13:35:57;;;;;;;8.25;3.80;;;4.90;59.20;;;;;;4130579;28;20093;-75
2023/11/29 13:38:00;;;;;;;6.35;3.10;;;4.90;58.60;;;;;;4130431;28;20104;-76
2023/11/29 13:40:03;;;;;;;5.05;2.85;;;5.00;58.50;;;;;;4131314;28;20141;-77
2023/11/29 13:42:05;;;;;;;5.72;3.00;;;5.10;58.50;;;;;;4132465;28;20050;-77
2023/11/29 13:44:06;;;;;;;6.50;2.80;;;5.10;58.40;;;;;;4137857;28;20053;-75
2023/11/29 13:46:08;;;;;;;5.43;2.88;;;5.10;58.40;;;;;;4139121;28;20054;-75
2023/11/29 13:48:10;;;;;;;5.85;2.83;;;5.20;58.30;;;;;;4132802;28;20097;-76
2023/11/29 13:50:12;;;;;;;6.60;2.75;;;5.10;58.10;;;;;;4128446;28;20367;-77
2023/11/29 13:52:14;;;;;;;5.07;2.45;;;5.10;58.30;;;;;;4130197;28;20458;-75
2023/11/29 13:54:18;;;;;;;5.78;2.70;;;5.20;58.10;;;;;;4129761;28;20042;-75
2023/11/29 13:56:20;;;;;;;5.35;2.42;;;5.30;58.10;;;;;;4130216;28;20451;-77
2023/11/29 13:58:22;;;;;;;6.32;2.90;;;5.50;58.10;;;;;;4130088;28;20483;-77
2023/11/29 14:00:24;;;;;;;5.15;2.83;;;6.00;57.40;;;;;;4129870;28;20171;-75
2023/11/29 14:02:27;;;;;;;6.30;2.70;;;6.60;56.30;;;;;;4122044;28;20120;-75
2023/11/29 14:04:29;;;;;;;5.07;2.60;;;7.50;54.70;;;;;;4113709;28;20100;-75
2023/11/29 14:06:31;;;;;;;5.18;2.50;;;8.40;51.70;;;;;;4113584;28;20097;-75
2023/11/29 14:08:33;;;;;;;3.92;2.10;;;10.00;49.10;;;;;;4113717;28;20051;-76
2023/11/29 14:10:37;;;;;;;4.22;2.28;;;10.70;45.90;;;;;;4114105;28;20134;-75
2023/11/29 14:12:38;;;;;;;3.80;1.83;;;12.40;44.10;;;;;;4115159;28;20466;-77
2023/11/29 14:14:39;;;;;;;4.75;1.90;;;12.90;40.10;;;;;;4117514;28;20507;-75
2023/11/29 14:16:41;;;;;;;5.40;2.38;;;13.00;40.20;;;;;;4117478;28;20055;-75
2023/11/29 14:18:43;;;;;;;8.55;3.95;;;14.80;37.30;;;;;;4117024;28;20053;-76
2023/11/29 14:20:44;;;;;;;3.10;1.77;;;15.50;34.50;;;;;;4117256;28;20125;-77
2023/11/29 14:22:46;;;;;;;3.83;1.60;;;15.60;34.90;;;;;;4117349;28;20047;-77
2023/11/29 14:24:48;;;;;;;3.65;1.90;;;16.70;33.90;;;;;;4115336;28;20051;-77
2023/11/29 14:26:51;;;;;;;4.43;2.00;;;17.00;32.90;;;;;;4117325;28;20069;-76
2023/11/29 14:28:53;;;;;;;3.88;1.90;;;16.40;33.10;;;;;;4117183;28;20081;-77
2023/11/29 14:30:55;;;;;;;4.93;1.88;;;15.70;34.40;;;;;;4117075;28;20054;-75
2023/11/29 14:32:56;;;;;;;4.30;1.70;;;15.20;34.90;;;;;;4117150;28;20507;-75
2023/11/29 14:34:58;;;;;;;4.85;1.70;;;14.40;36.30;;;;;;4116963;28;20086;-77
2023/11/29 14:37:00;;;;;;;3.22;1.50;;;13.50;37.50;;;;;;4117192;28;20443;-76
2023/11/29 14:39:02;;;;;;;3.42;1.80;;;12.70;39.00;;;;;;4116962;28;20050;-77
2023/11/29 14:41:05;;;;;;;4.97;1.92;;;11.90;40.30;;;;;;4116885;28;20050;-75
2023/11/29 14:43:08;;;;;;;6.10;1.90;;;11.20;41.70;;;;;;4117104;28;20058;-74
2023/11/29 14:45:09;;;;;;;4.55;1.80;;;10.90;43.40;;;;;;4116835;28;20455;-74
2023/11/29 14:47:11;;;;;;;3.72;2.00;;;11.30;43.00;;;;;;4117247;28;20058;-74
2023/11/29 14:49:13;;;;;;;4.70;1.90;;;11.40;42.30;;;;;;4117054;28;20050;-77
2023/11/29 14:51:15;;;;;;;4.90;2.25;;;11.70;42.10;;;;;;4116891;28;20047;-75
2023/11/29 14:53:17;;;;;;;4.25;2.30;;;12.00;41.20;;;;;;4116822;28;20098;-74
2023/11/29 14:55:19;;;;;;;7.03;2.20;;;12.10;40.60;;;;;;4116933;28;20074;-75
2023/11/29 14:57:23;;;;;;;4.97;2.65;;;12.00;40.90;;;;;;4116872;28;20126;-74
2023/11/29 14:59:26;;;;;;;4.18;2.30;;;11.40;41.40;;;;;;4116995;28;20050;-75
2023/11/29 15:01:28;;;;;;;4.78;2.35;;;10.90;42.50;;;;;;4116414;28;20141;-75
2023/11/29 15:03:30;;;;;;;4.68;2.50;;;10.50;43.20;;;;;;4129583;28;20050;-75
2023/11/29 15:05:32;;;;;;;4.63;2.40;;;10.30;44.20;;;;;;4132441;28;20488;-74
2023/11/29 15:07:33;;;;;;;4.03;2.30;;;10.00;44.90;;;;;;4132682;28;20506;-75
2023/11/29 15:09:37;;;;;;;4.10;2.65;;;9.70;45.80;;;;;;4132555;28;20054;-75
2023/11/29 15:11:39;;;;;;;4.80;3.03;;;9.50;46.30;;;;;;4130520;28;20137;-77
2023/11/29 15:13:41;;;;;;;5.05;3.00;;;9.30;46.70;;;;;;4132642;28;20069;-77
2023/11/29 15:15:44;;;;;;;6.60;2.97;;;9.10;47.50;;;;;;4132664;28;20630;-78
2023/11/29 15:17:46;;;;;;;4.43;2.25;;;8.80;48.20;;;;;;4132336;28;20496;-77
2023/11/29 15:19:48;;;;;;;7.78;2.90;;;8.60;48.70;;;;;;4131458;28;20069;-77
2023/11/29 15:21:49;;;;;;;6.05;2.90;;;8.40;49.40;;;;;;4131979;28;20050;-78
2023/11/29 15:23:51;;;;;;;5.78;2.67;;;8.10;50.10;;;;;;4129930;28;20558;-78
2023/11/29 15:25:55;;;;;;;6.40;2.88;;;8.00;50.80;;;;;;4131739;28;20092;-77
2023/11/29 15:27:57;;;;;;;4.60;2.90;;;8.00;51.80;;;;;;4132553;28;20050;-77
2023/11/29 15:29:59;;;;;;;5.88;2.60;;;7.80;52.20;;;;;;4131957;28;20109;-77
2023/11/29 15:32:02;;;;;;;4.72;3.00;;;7.60;52.70;;;;;;4132094;28;20047;-78
2023/11/29 15:34:04;;;;;;;5.00;2.90;;;7.50;53.20;;;;;;4132132;28;20058;-78
2023/11/29 15:36:06;;;;;;;4.88;2.97;;;7.30;53.60;;;;;;4131773;28;20404;-79
2023/11/29 15:38:08;;;;;;;5.03;2.33;;;7.30;53.80;;;;;;4132154;28;20101;-77
2023/11/29 15:40:12;;;;;;;3.90;1.92;;;7.20;54.10;;;;;;4131152;28;20141;-78
2023/11/29 15:42:14;;;;;;;3.72;1.73;;;7.10;53.70;;;;;;4131114;28;20054;-78
2023/11/29 15:44:16;;;;;;;3.63;1.52;;;7.10;53.60;;;;;;4131743;28;20046;-79
2023/11/29 15:46:17;;;;;;;4.05;1.40;;;7.00;53.50;;;;;;4131455;28;20047;-78
2023/11/29 15:48:20;;;;;;;3.47;1.40;;;6.80;53.70;;;;;;4131288;28;20463;-78
2023/11/29 15:50:22;;;;;;;3.58;1.50;;;6.70;53.90;;;;;;4131914;28;20124;-75
2023/11/29 15:52:24;;;;;;;3.25;1.30;;;6.50;54.30;;;;;;4131791;28;20081;-77
2023/11/29 15:54:26;;;;;;;2.90;1.25;;;6.40;55.20;;;;;;4130578;28;20042;-77
2023/11/29 15:56:27;;;;;;;3.97;1.52;;;6.40;55.30;;;;;;4132059;28;20592;-77
2023/11/29 15:58:28;;;;;;;2.75;1.10;;;6.30;55.20;;;;;;4131912;28;20082;-77
2023/11/29 16:00:31;;;;;;;4.03;1.27;;;6.30;55.40;;;;;;4131700;28;20459;-78
2023/11/29 16:02:32;;;;;;;3.53;1.20;;;6.20;55.50;;;;;;4132143;28;20043;-77
2023/11/29 16:04:35;;;;;;;3.95;1.30;;;6.20;55.70;;;;;;4132104;28;20455;-77
2023/11/29 16:06:36;;;;;;;5.00;1.30;;;6.20;56.20;;;;;;4131591;28;20062;-77
2023/11/29 16:08:38;;;;;;;3.80;1.30;;;6.10;56.20;;;;;;4131761;28;20054;-77
2023/11/29 16:10:39;;;;;;;3.65;1.50;;;6.10;56.40;;;;;;4131860;28;20113;-78
2023/11/29 16:12:41;;;;;;;4.97;1.90;;;6.10;56.60;;;;;;4131772;28;20476;-77
2023/11/29 16:14:43;;;;;;;4.40;1.90;;;6.00;56.90;;;;;;4132122;28;20074;-75
2023/11/29 16:16:45;;;;;;;3.80;1.95;;;6.00;57.30;;;;;;4131667;28;20051;-76
2023/11/29 16:18:47;;;;;;;4.00;1.80;;;5.90;57.70;;;;;;4131506;28;20057;-78
2023/11/29 16:20:50;;;;;;;4.75;2.17;;;5.90;58.00;;;;;;4131592;28;20393;-75
2023/11/29 16:22:52;;;;;;;5.43;2.05;;;5.80;58.10;;;;;;4131615;28;20054;-77
2023/11/29 16:24:54;;;;;;;3.92;2.10;;;5.80;58.40;;;;;;4129577;28;20051;-79
2023/11/29 16:26:56;;;;;;;4.00;2.22;;;5.80;58.40;;;;;;4131256;28;20443;-78
2023/11/29 16:28:57;;;;;;;4.80;2.08;;;5.80;58.40;;;;;;4130980;28;20090;-77
2023/11/29 16:30:59;;;;;;;4.68;2.20;;;5.70;58.40;;;;;;4130698;28;20081;-78
2023/11/29 16:33:01;;;;;;;4.88;2.05;;;5.70;59.00;;;;;;4131434;28;20129;-76
2023/11/29 16:35:03;;;;;;;4.10;1.95;;;5.60;58.70;;;;;;4130259;28;20046;-76
2023/11/29 16:37:07;;;;;;;3.88;1.75;;;5.60;58.80;;;;;;4130576;28;20050;-78
2023/11/29 16:39:09;;;;;;;4.60;2.25;;;5.60;59.10;;;;;;4131218;28;20043;-78
2023/11/29 16:41:10;;;;;;;5.78;2.45;;;5.50;59.10;;;;;;4131371;28;20089;-77
2023/11/29 16:43:12;;;;;;;3.83;2.00;;;5.50;59.20;;;;;;4129823;28;20078;-77
2023/11/29 16:45:13;;;;;;;6.28;2.20;;;5.40;59.30;;;;;;4131178;28;20050;-77